Time;durP1;ratioP1;P1;durP2;ratioP2;P2;SDS_P1;SDS_P2;PMS_P1;PMS_P2;Temp;Humidity;BMP_temperature;BMP_pressure;BME280_temperature;BME280_humidity;BME280_pressure;Samples;Min_cycle;Max_cycle;Signal;HPM_P1;HPM_P2
2022/01/19 00:01:49;;;;;;;8.57;2.13;;;;;;;-3.84;61.13;95133.94;5022620;28;20029;-81
2022/01/19 00:04:14;;;;;;;7.07;2.53;;;;;;;-3.78;61.03;95149.81;5022774;28;20215;-81
2022/01/19 00:06:40;;;;;;;14.32;3.30;;;;;;;-3.73;61.03;95140.41;5022761;28;20113;-81
2022/01/19 00:09:05;;;;;;;9.88;3.15;;;;;;;-3.73;60.62;95148.22;5022727;28;20316;-81
2022/01/19 00:11:31;;;;;;;10.73;3.03;;;;;;;-3.78;60.95;95148.00;5022604;28;20303;-81
2022/01/19 00:13:57;;;;;;;15.00;3.38;;;;;;;-3.77;61.01;95160.03;5022369;28;20091;-80
2022/01/19 00:16:22;;;;;;;5.95;2.50;;;;;;;-3.65;61.05;95161.09;5022536;28;20025;-81
2022/01/19 00:18:48;;;;;;;11.00;3.38;;;;;;;-3.68;60.82;95156.28;5022656;28;20026;-81
2022/01/19 00:21:14;;;;;;;9.68;3.22;;;;;;;-3.75;60.98;95165.84;5024479;28;20097;-81
2022/01/19 00:23:39;;;;;;;10.52;3.05;;;;;;;-3.72;60.87;95156.88;5042071;28;20270;-81
2022/01/19 00:26:05;;;;;;;6.90;2.30;;;;;;;-3.75;61.15;95171.06;5026868;28;20018;-80
2022/01/19 00:28:30;;;;;;;5.50;2.25;;;;;;;-3.78;61.13;95165.44;5026443;28;20024;-81
2022/01/19 00:30:56;;;;;;;10.38;2.88;;;;;;;-3.74;61.00;95169.28;5026643;28;20232;-80
2022/01/19 00:33:22;;;;;;;11.35;2.40;;;;;;;-3.85;61.14;95176.63;5026433;28;20018;-80
2022/01/19 00:35:49;;;;;;;6.15;2.65;;;;;;;-3.84;61.47;95175.63;5026515;28;20022;-80
2022/01/19 00:38:14;;;;;;;9.50;2.83;;;;;;;-3.87;61.74;95178.63;5026521;28;20200;-80
2022/01/19 00:40:41;;;;;;;6.82;2.45;;;;;;;-3.85;61.82;95181.84;5026302;28;20033;-80
2022/01/19 00:43:07;;;;;;;11.38;2.22;;;;;;;-3.83;61.48;95192.88;5026194;28;20029;-83
2022/01/19 00:45:32;;;;;;;9.52;3.13;;;;;;;-3.85;62.19;95200.06;5026330;28;20033;-82
2022/01/19 00:47:58;;;;;;;8.27;3.17;;;;;;;-3.86;62.01;95188.03;5026323;28;20220;-83
2022/01/19 00:50:27;;;;;;;9.18;3.08;;;;;;;-3.92;62.51;95183.59;5026087;28;20285;-82
2022/01/19 00:52:53;;;;;;;9.30;2.78;;;;;;;-3.98;62.64;95189.56;5026163;28;20022;-82
2022/01/19 00:55:22;;;;;;;12.50;2.78;;;;;;;-3.99;62.92;95195.75;5026491;28;20021;-82
2022/01/19 00:57:48;;;;;;;7.95;2.88;;;;;;;-4.01;62.80;95209.97;5041670;28;20030;-81
2022/01/19 01:00:18;;;;;;;9.88;2.40;;;;;;;-4.02;63.25;95206.56;5039869;28;20258;-82
2022/01/19 01:02:43;;;;;;;14.15;3.95;;;;;;;-3.97;62.83;95196.34;5024453;28;20048;-82
2022/01/19 01:05:09;;;;;;;8.98;3.10;;;;;;;-4.04;62.81;95193.72;5041280;28;20245;-82
2022/01/19 01:07:38;;;;;;;8.48;3.20;;;;;;;-4.03;63.12;95197.13;5025852;28;20072;-82
2022/01/19 01:10:06;;;;;;;9.30;3.80;;;;;;;-4.03;63.70;95217.94;5025826;28;20022;-82
2022/01/19 01:12:44;;;;;;;11.38;3.42;;;;;;;-4.06;63.63;95215.75;5040845;28;20042;-82
2022/01/19 01:15:36;;;;;;;9.02;3.22;;;;;;;-4.08;63.67;95220.34;5025756;28;20029;-82
2022/01/19 01:20:31;;;;;;;8.98;3.05;;;;;;;-4.14;63.82;95208.88;5025646;28;20021;-83
2022/01/19 01:22:56;;;;;;;12.05;3.28;;;;;;;-4.10;63.70;95199.69;5040924;28;20354;-83
2022/01/19 01:25:22;;;;;;;10.43;2.97;;;;;;;-4.15;63.72;95206.44;5040838;28;20021;-83
2022/01/19 01:27:51;;;;;;;11.85;3.13;;;;;;;-4.12;63.54;95208.69;5025538;28;20220;-83
2022/01/19 01:30:17;;;;;;;8.25;2.97;;;;;;;-4.15;63.86;95212.47;5025501;28;20051;-83
2022/01/19 01:32:42;;;;;;;8.48;2.83;;;;;;;-4.18;63.70;95192.00;5023418;28;20053;-83
2022/01/19 01:35:09;;;;;;;11.93;3.58;;;;;;;-4.14;63.45;95185.44;5025660;28;20018;-83
2022/01/19 01:37:34;;;;;;;13.25;3.45;;;;;;;-4.18;63.89;95186.00;5025273;28;20084;-83
2022/01/19 01:40:01;;;;;;;11.95;3.67;;;;;;;-4.17;63.50;95180.63;5024000;28;20022;-82
2022/01/19 01:42:27;;;;;;;10.02;2.85;;;;;;;-4.18;63.54;95175.59;5024941;28;20041;-82
2022/01/19 01:44:56;;;;;;;9.32;2.63;;;;;;;-4.20;63.60;95188.00;5025311;28;20372;-82
2022/01/19 01:47:22;;;;;;;10.40;3.40;;;;;;;-4.17;63.55;95193.63;5025222;28;20355;-82
2022/01/19 01:55:04;;;;;;;6.85;3.05;;;;;;;-4.20;63.36;95180.19;5025735;28;20087;-81
2022/01/19 01:57:30;;;;;;;16.08;3.10;;;;;;;-4.15;62.79;95169.97;5040279;28;20040;-81
2022/01/19 01:59:55;;;;;;;10.15;2.70;;;;;;;-4.15;62.62;95162.16;5025005;28;20097;-80
2022/01/19 02:02:21;;;;;;;11.73;3.47;;;;;;;-4.11;62.39;95172.03;5024666;28;20209;-80
2022/01/19 02:04:46;;;;;;;8.23;2.30;;;;;;;-4.17;62.40;95166.75;5025011;28;20336;-80
2022/01/19 02:09:45;;;;;;;9.68;2.92;;;;;;;-4.18;62.53;95157.34;5024664;28;20045;-80
2022/01/19 02:23:21;;;;;;;10.05;2.40;;;;;;;-4.15;61.74;95128.31;5024445;28;20121;-82
2022/01/19 02:25:56;;;;;;;10.27;3.00;;;;;;;-4.09;61.38;95135.38;5024589;28;20026;-82
2022/01/19 02:36:50;;;;;;;10.10;2.22;;;;;;;-4.08;61.16;95122.16;5023988;28;20029;-81
2022/01/19 02:42:06;;;;;;;6.05;2.10;;;;;;;-4.10;60.86;95131.19;5024017;28;20190;-80
2022/01/19 02:49:51;;;;;;;5.93;2.83;;;;;;;-4.10;60.95;95128.56;5024094;28;20375;-82
2022/01/19 02:52:17;;;;;;;9.98;3.05;;;;;;;-4.08;60.79;95134.41;5024163;28;20017;-83
2022/01/19 02:54:44;;;;;;;5.60;2.33;;;;;;;-4.05;60.81;95134.00;5039310;28;20022;-82
2022/01/19 02:57:12;;;;;;;12.77;3.03;;;;;;;-4.06;60.96;95130.59;5023905;28;20018;-83
2022/01/19 03:10:28;;;;;;;6.70;2.97;;;;;;;-4.05;60.96;95139.22;5023674;28;20076;-83
2022/01/19 03:12:53;;;;;;;13.15;3.58;;;;;;;-4.04;60.88;95143.44;5023456;28;20061;-82
2022/01/19 03:15:19;;;;;;;8.40;3.05;;;;;;;-4.01;60.67;95130.00;5038910;28;20029;-83
2022/01/19 03:17:45;;;;;;;9.25;2.33;;;;;;;-4.00;60.59;95110.00;5023589;28;20022;-82
2022/01/19 03:20:12;;;;;;;9.50;2.63;;;;;;;-4.03;60.66;95121.59;5023466;28;20559;-82
2022/01/19 03:22:49;;;;;;;6.45;2.20;;;;;;;-4.07;60.87;95118.59;5038350;28;20101;-81
2022/01/19 03:25:15;;;;;;;8.80;2.40;;;;;;;-4.10;61.00;95111.16;5023266;28;20087;-82
2022/01/19 03:27:40;;;;;;;4.25;2.08;;;;;;;-4.06;60.89;95129.81;5023318;28;20041;-82
2022/01/19 03:30:08;;;;;;;7.97;2.78;;;;;;;-4.04;61.16;95127.81;5023228;28;20048;-83
2022/01/19 03:32:33;;;;;;;5.18;2.65;;;;;;;-4.07;60.96;95121.19;5038603;28;20021;-83
2022/01/19 03:34:59;;;;;;;7.65;2.25;;;;;;;-4.03;60.58;95137.22;5023133;28;20217;-82
2022/01/19 03:37:25;;;;;;;7.93;2.70;;;;;;;-4.05;60.77;95126.19;5038485;28;20300;-83
2022/01/19 03:39:50;;;;;;;13.07;2.47;;;;;;;-4.04;60.59;95151.25;5023601;28;20034;-83
2022/01/19 03:42:16;;;;;;;12.98;3.35;;;;;;;-4.01;60.73;95139.63;5023173;28;20033;-82
2022/01/19 03:44:41;;;;;;;6.05;2.00;;;;;;;-4.01;60.36;95139.63;5022983;28;20041;-79
2022/01/19 03:47:07;;;;;;;6.97;2.95;;;;;;;-4.01;60.67;95134.44;5023096;28;20022;-79
2022/01/19 03:49:34;;;;;;;11.63;3.05;;;;;;;-4.01;60.76;95139.63;5022791;28;20097;-80
2022/01/19 03:52:02;;;;;;;9.55;2.80;;;;;;;-4.03;60.49;95139.81;5022962;28;20029;-79
2022/01/19 03:54:39;;;;;;;6.53;2.35;;;;;;;-3.99;60.13;95140.25;5022972;28;20041;-79
2022/01/19 03:57:05;;;;;;;5.50;2.70;;;;;;;-4.04;60.54;95140.84;5022349;28;20029;-80
2022/01/19 03:59:32;;;;;;;11.70;2.72;;;;;;;-4.00;60.49;95143.88;5022595;28;20342;-79
2022/01/19 04:01:58;;;;;;;7.63;2.38;;;;;;;-4.01;60.02;95135.22;5037889;28;20209;-79
2022/01/19 04:09:22;;;;;;;5.95;2.72;;;;;;;-3.94;59.76;95148.31;5022859;28;20060;-79
2022/01/19 04:11:48;;;;;;;4.93;2.58;;;;;;;-3.95;59.91;95151.91;5022785;28;20029;-79
2022/01/19 04:14:22;;;;;;;6.28;2.17;;;;;;;-3.94;59.64;95158.72;5022589;28;20060;-79
2022/01/19 04:17:04;;;;;;;5.43;2.50;;;;;;;-3.93;59.64;95142.91;5022783;28;20029;-81
2022/01/19 04:19:42;;;;;;;11.02;2.55;;;;;;;-3.89;59.31;95153.75;5022264;28;20026;-79
2022/01/19 04:22:11;;;;;;;5.65;2.13;;;;;;;-3.96;59.51;95161.53;5022671;28;20072;-84
2022/01/19 04:24:37;;;;;;;11.45;2.63;;;;;;;-3.92;59.64;95160.13;5038094;28;20029;-82
2022/01/19 04:29:46;;;;;;;6.35;2.63;;;;;;;-3.94;59.41;95149.09;5022819;28;20104;-83
2022/01/19 04:32:17;;;;;;;12.57;3.35;;;;;;;-3.88;59.52;95155.38;5022739;28;20038;-83
2022/01/19 04:34:45;;;;;;;9.80;2.80;;;;;;;-3.88;59.33;95161.38;5022694;28;20028;-84
2022/01/19 05:02:12;;;;;;;14.35;3.33;;;;;;;-3.92;59.62;95178.38;5022072;28;20036;-81
2022/01/19 05:04:52;;;;;;;17.42;3.03;;;;;;;-3.92;59.39;95185.41;5021854;28;20076;-81
2022/01/19 05:07:34;;;;;;;6.93;2.83;;;;;;;-3.96;59.57;95200.59;5022234;28;20026;-81
2022/01/19 05:15:10;;;;;;;7.32;2.85;;;;;;;-3.94;59.74;95203.81;5025712;28;20144;-81
2022/01/19 05:17:36;;;;;;;7.65;2.85;;;;;;;-3.92;59.64;95212.25;5041073;28;20025;-81
2022/01/19 05:20:06;;;;;;;11.85;2.88;;;;;;;-3.95;59.72;95206.59;5025622;28;20024;-82
2022/01/19 05:22:32;;;;;;;5.70;2.72;;;;;;;-3.95;59.73;95206.59;5040844;28;20093;-82
2022/01/19 05:24:58;;;;;;;6.20;2.15;;;;;;;-3.92;59.99;95196.59;5025463;28;20050;-82
2022/01/19 05:27:24;;;;;;;8.45;3.05;;;;;;;-3.92;60.17;95201.81;5025494;28;20029;-82
2022/01/19 05:29:50;;;;;;;9.77;2.63;;;;;;;-3.98;60.17;95199.97;5025473;28;20105;-82
2022/01/19 05:32:16;;;;;;;10.57;3.17;;;;;;;-4.03;60.39;95221.38;5024305;28;20033;-81
2022/01/19 05:34:42;;;;;;;9.70;2.97;;;;;;;-3.99;60.59;95221.78;5025577;28;20033;-83
2022/01/19 05:37:07;;;;;;;8.68;3.83;;;;;;;-4.03;60.82;95224.00;5025443;28;20338;-83
2022/01/19 05:39:33;;;;;;;13.25;2.65;;;;;;;-4.07;60.98;95229.75;5025320;28;20025;-83
2022/01/19 05:41:58;;;;;;;6.35;3.28;;;;;;;-4.11;61.75;95223.28;5025340;28;20144;-83
2022/01/19 05:44:24;;;;;;;6.68;2.10;;;;;;;-4.19;62.53;95229.47;5025112;28;20041;-82
2022/01/19 05:46:49;;;;;;;9.10;2.72;;;;;;;-4.12;62.54;95234.72;5025273;28;20089;-82
2022/01/19 05:49:14;;;;;;;9.18;3.40;;;;;;;-4.11;62.97;95236.31;5025249;28;20323;-82
2022/01/19 05:51:40;;;;;;;13.63;3.00;;;;;;;-4.18;63.39;95257.09;5025163;28;20026;-82
2022/01/19 05:54:06;;;;;;;12.88;2.92;;;;;;;-4.12;63.79;95247.75;5024910;28;20021;-81
2022/01/19 05:56:32;;;;;;;7.55;3.67;;;;;;;-4.15;63.74;95242.91;5025037;28;20029;-82
2022/01/19 05:58:57;;;;;;;9.23;3.30;;;;;;;-4.15;63.99;95263.72;5024915;28;20223;-82
2022/01/19 06:01:22;;;;;;;11.38;3.60;;;;;;;-4.17;63.98;95265.72;5024896;28;20033;-79
2022/01/19 06:03:50;;;;;;;11.88;3.30;;;;;;;-4.12;63.76;95260.75;5025014;28;20081;-80
2022/01/19 06:06:17;;;;;;;9.10;3.20;;;;;;;-4.21;64.05;95248.84;5024815;28;20026;-81
2022/01/19 06:08:44;;;;;;;20.77;3.67;;;;;;;-4.24;64.55;95240.41;5024698;28;20029;-81
2022/01/19 06:11:10;;;;;;;4.63;2.13;;;;;;;-4.20;64.70;95256.47;5024702;28;20032;-81
2022/01/19 06:13:36;;;;;;;12.38;4.60;;;;;;;-4.21;64.74;95241.88;5039794;28;20099;-82
2022/01/19 06:16:01;;;;;;;5.78;2.78;;;;;;;-4.17;64.52;95242.28;5024706;28;20252;-82
2022/01/19 06:18:27;;;;;;;5.45;3.05;;;;;;;-4.13;64.67;95256.53;5024014;28;20040;-81
2022/01/19 06:20:53;;;;;;;15.30;4.93;;;;;;;-4.12;64.77;95253.75;5024198;28;20256;-80
2022/01/19 06:23:18;;;;;;;8.43;2.80;;;;;;;-4.10;64.83;95253.56;5024409;28;20029;-80
2022/01/19 06:25:44;;;;;;;7.47;3.20;;;;;;;-4.07;64.58;95266.19;5024604;28;20028;-82
2022/01/19 06:28:09;;;;;;;9.15;3.25;;;;;;;-4.05;64.85;95269.41;5024585;28;20026;-83
2022/01/19 06:30:35;;;;;;;9.15;3.83;;;;;;;-4.01;64.87;95275.06;5039765;28;20049;-83
2022/01/19 06:33:01;;;;;;;11.30;3.90;;;;;;;-3.95;64.66;95275.13;5024218;28;20014;-83
2022/01/19 06:35:26;;;;;;;9.80;3.60;;;;;;;-3.97;64.47;95266.69;5023290;28;20018;-82
2022/01/19 06:37:52;;;;;;;8.90;3.67;;;;;;;-3.91;64.64;95265.97;5024090;28;20029;-83
2022/01/19 06:40:20;;;;;;;8.02;3.38;;;;;;;-3.87;64.63;95282.81;5024297;28;20038;-83
2022/01/19 06:42:48;;;;;;;17.13;3.95;;;;;;;-3.85;64.67;95275.63;5023924;28;20033;-81
2022/01/19 06:45:14;;;;;;;12.70;4.57;;;;;;;-3.78;64.48;95278.28;5024175;28;20099;-79
2022/01/19 06:47:40;;;;;;;11.23;4.57;;;;;;;-3.65;64.28;95285.38;5024009;28;20018;-78
2022/01/19 06:50:08;;;;;;;10.48;3.63;;;;;;;-3.63;63.93;95288.59;5023932;28;20021;-82
2022/01/19 06:52:34;;;;;;;13.73;3.90;;;;;;;-3.63;63.77;95281.59;5039096;28;20207;-83
2022/01/19 06:54:59;;;;;;;13.50;3.90;;;;;;;-3.61;63.63;95270.97;5023809;28;20046;-79
2022/01/19 06:57:24;;;;;;;12.00;4.60;;;;;;;-3.58;63.83;95286.25;5023989;28;20101;-78
2022/01/19 06:59:51;;;;;;;10.13;3.90;;;;;;;-3.52;64.00;95275.06;5023823;28;20022;-79
2022/01/19 07:02:18;;;;;;;9.57;3.60;;;;;;;-3.53;63.43;95276.03;5022286;28;20034;-81
2022/01/19 07:04:48;;;;;;;10.15;4.03;;;;;;;-3.52;63.71;95263.81;5023700;28;20037;-79
2022/01/19 07:07:15;;;;;;;11.02;4.20;;;;;;;-3.44;63.41;95274.91;5023509;28;20030;-81
2022/01/19 07:09:41;;;;;;;7.97;3.60;;;;;;;-3.41;63.56;95270.31;5023782;28;20093;-85
2022/01/19 07:12:07;;;;;;;11.05;3.58;;;;;;;-3.38;63.30;95278.53;5023936;28;20304;-84
2022/01/19 07:14:32;;;;;;;13.82;3.47;;;;;;;-3.39;62.99;95245.66;5038928;28;20041;-84
2022/01/19 07:16:57;;;;;;;13.23;3.55;;;;;;;-3.32;62.81;95243.06;5022780;28;20030;-81
2022/01/19 07:19:23;;;;;;;12.68;3.75;;;;;;;-3.40;63.14;95232.81;5023423;28;20084;-81
2022/01/19 07:21:50;;;;;;;29.42;9.98;;;;;;;-3.35;62.66;95244.28;5025239;28;20033;-86
2022/01/19 07:24:15;;;;;;;16.90;4.30;;;;;;;-3.28;62.64;95244.31;5023428;28;20017;-84
2022/01/19 07:26:41;;;;;;;14.90;4.00;;;;;;;-3.25;62.36;95244.72;5023540;28;20024;-86
2022/01/19 07:29:07;;;;;;;13.75;3.63;;;;;;;-3.21;62.37;95244.34;5023845;28;20017;-86
2022/01/19 07:31:32;;;;;;;10.60;4.30;;;;;;;-3.19;61.91;95237.94;5023062;28;20018;-86
2022/01/19 07:33:57;;;;;;;9.75;3.83;;;;;;;-3.21;61.83;95245.16;5023338;28;20022;-85
2022/01/19 07:36:23;;;;;;;8.50;3.20;;;;;;;-3.17;62.03;95235.94;5023298;28;20018;-84
2022/01/19 07:38:48;;;;;;;9.63;3.67;;;;;;;-3.18;62.01;95238.75;5038565;28;20378;-85
2022/01/19 07:41:14;;;;;;;14.30;3.83;;;;;;;-3.13;61.30;95252.03;5023275;28;20027;-85
2022/01/19 07:43:39;;;;;;;11.63;3.40;;;;;;;-3.03;61.16;95253.28;5038446;28;20025;-84
2022/01/19 07:46:05;;;;;;;12.23;2.97;;;;;;;-3.02;61.19;95254.06;5023455;28;20033;-83
2022/01/19 07:48:30;;;;;;;15.77;3.67;;;;;;;-2.94;61.07;95253.09;5021872;28;20030;-83
2022/01/19 07:50:56;;;;;;;14.13;3.40;;;;;;;-2.84;60.81;95249.13;5022469;28;20026;-83
2022/01/19 07:53:21;;;;;;;8.25;3.70;;;;;;;-2.69;60.33;95267.22;5022355;28;20018;-81
2022/01/19 07:55:49;;;;;;;11.07;3.80;;;;;;;-2.66;60.00;95259.03;5022884;28;20247;-81
2022/01/19 07:58:14;;;;;;;11.07;3.33;;;;;;;-2.66;59.75;95247.78;5022667;28;20017;-80
2022/01/19 08:00:42;;;;;;;11.85;4.20;;;;;;;-2.69;59.46;95259.41;5022700;28;20275;-83
2022/01/19 08:03:10;;;;;;;7.60;3.50;;;;;;;-2.63;59.31;95253.44;5022773;28;20037;-80
2022/01/19 08:05:36;;;;;;;10.23;4.00;;;;;;;-2.61;59.13;95261.03;5022778;28;20022;-80
2022/01/19 08:08:02;;;;;;;14.57;3.70;;;;;;;-2.56;58.96;95250.03;5021360;28;20033;-80
2022/01/19 08:10:29;;;;;;;14.80;4.10;;;;;;;-2.45;58.87;95254.66;5022736;28;20022;-82
2022/01/19 08:12:56;;;;;;;14.25;3.33;;;;;;;-2.34;58.58;95261.09;5021283;28;20072;-81
2022/01/19 08:15:21;;;;;;;11.20;3.50;;;;;;;-2.29;58.35;95254.28;5038156;28;20221;-82
2022/01/19 08:17:49;;;;;;;14.63;4.03;;;;;;;-2.27;58.11;95254.91;5023553;28;20021;-89
2022/01/19 08:20:15;;;;;;;12.38;4.03;;;;;;;-2.10;57.97;95257.13;5039306;28;20223;-86
2022/01/19 08:22:40;;;;;;;12.40;3.75;;;;;;;-2.10;57.31;95254.50;5023217;28;20057;-85
2022/01/19 08:25:16;;;;;;;11.45;4.35;;;;;;;-2.07;57.33;95256.75;5023330;28;20063;-87
2022/01/19 08:27:42;;;;;;;9.13;3.50;;;;;;;-1.97;56.81;95259.75;5038417;28;20038;-83
2022/01/19 08:30:09;;;;;;;11.35;3.30;;;;;;;-1.90;56.98;95257.16;5022447;28;20033;-80
2022/01/19 08:32:37;;;;;;;9.77;4.10;;;;;;;-1.78;55.95;95257.34;5037754;28;20052;-78
2022/01/19 08:35:05;;;;;;;12.00;3.50;;;;;;;-1.76;55.80;95260.56;5022349;28;20024;-78
2022/01/19 08:37:30;;;;;;;15.70;3.63;;;;;;;-1.87;55.90;95264.59;5022410;28;20024;-79
2022/01/19 08:39:56;;;;;;;10.10;3.45;;;;;;;-1.87;55.37;95248.91;5037778;28;20018;-78
2022/01/19 08:42:21;;;;;;;15.00;3.17;;;;;;;-1.81;55.45;95235.03;5024463;28;20092;-76
2022/01/19 08:44:47;;;;;;;8.70;3.53;;;;;;;-1.70;55.47;95228.41;5026208;28;20018;-76
2022/01/19 08:47:12;;;;;;;8.75;3.53;;;;;;;-1.63;54.32;95237.84;5026280;28;20045;-77
2022/01/19 08:49:38;;;;;;;7.63;3.33;;;;;;;-1.63;54.12;95239.63;5026323;28;20034;-76
2022/01/19 08:52:05;;;;;;;20.20;3.10;;;;;;;-1.52;54.18;95228.56;5026194;28;20162;-77
2022/01/19 08:54:30;;;;;;;23.15;3.90;;;;;;;-1.48;53.34;95242.03;5026013;28;20018;-77
2022/01/19 08:56:57;;;;;;;4.65;2.80;;;;;;;-1.60;53.61;95228.78;5026261;28;20017;-77
2022/01/19 08:59:23;;;;;;;12.48;3.92;;;;;;;-1.47;53.65;95225.34;5026306;28;20299;-77
2022/01/19 09:01:48;;;;;;;16.17;3.72;;;;;;;-1.60;53.84;95228.00;5026452;28;20022;-78
2022/01/19 09:04:14;;;;;;;8.45;2.95;;;;;;;-1.65;53.72;95223.34;5024929;28;20387;-78
2022/01/19 09:06:40;;;;;;;25.10;4.85;;;;;;;-1.58;53.45;95226.78;5025917;28;20036;-78
2022/01/19 09:09:05;;;;;;;21.30;5.20;;;;;;;-1.55;53.36;95222.94;5025794;28;20033;-78
2022/01/19 09:11:31;;;;;;;9.25;3.63;;;;;;;-1.60;53.35;95214.91;5025982;28;20089;-79
2022/01/19 09:13:57;;;;;;;8.55;3.22;;;;;;;-1.58;52.56;95216.31;5041192;28;20042;-81
2022/01/19 09:16:23;;;;;;;11.55;4.28;;;;;;;-1.54;53.03;95214.91;5025570;28;20251;-81
2022/01/19 09:18:48;;;;;;;9.98;3.63;;;;;;;-1.42;53.55;95210.66;5025452;28;20033;-83
2022/01/19 09:21:13;;;;;;;6.45;2.83;;;;;;;-1.54;53.08;95209.66;5040794;28;20018;-79
2022/01/19 09:23:39;;;;;;;7.20;2.72;;;;;;;-1.50;52.83;95208.25;5025515;28;20022;-79
2022/01/19 09:26:04;;;;;;;15.55;3.85;;;;;;;-1.41;52.32;95207.00;5025440;28;20041;-80
2022/01/19 09:28:30;;;;;;;10.40;4.65;;;;;;;-1.41;52.23;95196.53;5024532;28;20026;-80
2022/01/19 09:31:01;;;;;;;13.75;3.55;;;;;;;-1.25;51.87;95186.66;5041000;28;20032;-80
2022/01/19 09:33:30;;;;;;;7.53;3.33;;;;;;;-1.15;51.48;95196.69;5025492;28;20092;-75
2022/01/19 09:38:27;;;;;;;15.15;4.47;;;;;;;-1.09;51.77;95182.78;5025659;28;20017;-78
2022/01/19 09:40:52;;;;;;;16.02;4.18;;;;;;;-0.98;51.52;95191.78;5025316;28;20029;-76
2022/01/19 09:43:22;;;;;;;9.70;3.53;;;;;;;-1.03;51.39;95182.75;5025293;28;20029;-75
2022/01/19 09:45:51;;;;;;;11.77;3.67;;;;;;;-0.92;51.08;95204.03;5025151;28;20040;-78
2022/01/19 09:48:16;;;;;;;10.73;4.07;;;;;;;-0.86;51.20;95169.97;5025161;28;20327;-77
2022/01/19 09:50:42;;;;;;;11.52;3.58;;;;;;;-0.76;50.52;95174.75;5025299;28;20057;-77
2022/01/19 09:53:08;;;;;;;16.35;4.10;;;;;;;-0.77;51.49;95170.56;5024418;28;20025;-77
2022/01/19 09:55:35;;;;;;;14.15;5.03;;;;;;;-0.74;50.76;95167.50;5025163;28;20029;-76
2022/01/19 09:58:01;;;;;;;16.33;4.43;;;;;;;-0.68;51.12;95169.28;5025120;28;20025;-78
2022/01/19 10:00:27;;;;;;;16.00;5.18;;;;;;;-0.65;50.37;95170.69;5025089;28;20090;-78
2022/01/19 10:03:12;;;;;;;14.95;4.57;;;;;;;-0.50;50.76;95175.63;5025002;28;20092;-77
2022/01/19 10:05:53;;;;;;;11.45;4.45;;;;;;;-0.53;50.99;95168.19;5025030;28;20018;-79
2022/01/19 10:08:38;;;;;;;12.82;3.97;;;;;;;-0.40;50.30;95162.88;5025140;28;20025;-78
2022/01/19 10:11:10;;;;;;;17.63;4.13;;;;;;;-0.39;49.61;95161.03;5024806;28;20316;-79
2022/01/19 10:19:19;;;;;;;11.93;4.28;;;;;;;-0.49;50.71;95143.16;5025220;28;20032;-80
2022/01/19 10:22:18;;;;;;;15.57;4.68;;;;;;;-0.46;50.84;95148.00;5040059;28;20380;-79
2022/01/19 10:24:56;;;;;;;12.48;4.40;;;;;;;-0.58;50.66;95142.63;5024029;28;20041;-80
2022/01/19 10:27:37;;;;;;;14.98;4.22;;;;;;;-0.44;50.84;95145.97;5024669;28;20041;-82
2022/01/19 10:30:03;;;;;;;20.40;4.88;;;;;;;-0.43;50.55;95152.81;5024577;28;20025;-80
2022/01/19 10:32:35;;;;;;;11.82;4.20;;;;;;;-0.32;50.02;95154.75;5039787;28;20028;-80
2022/01/19 10:35:18;;;;;;;14.90;4.70;;;;;;;-0.29;49.89;95154.31;5023365;28;20050;-82
2022/01/19 10:37:46;;;;;;;13.23;3.85;;;;;;;-0.45;50.72;95150.41;5024447;28;20213;-80
2022/01/19 10:40:17;;;;;;;9.60;4.10;;;;;;;-0.39;50.23;95138.25;5024286;28;20419;-82
2022/01/19 10:42:43;;;;;;;18.20;5.10;;;;;;;-0.41;50.17;95135.06;5024318;28;20021;-82
2022/01/19 10:45:10;;;;;;;18.08;4.50;;;;;;;-0.42;50.12;95128.22;5023987;28;20042;-81
2022/01/19 10:47:45;;;;;;;15.63;4.78;;;;;;;-0.38;50.34;95118.94;5023754;28;20026;-81
2022/01/19 10:50:13;;;;;;;16.88;4.50;;;;;;;-0.29;50.15;95112.38;5039291;28;20026;-81
2022/01/19 10:52:44;;;;;;;14.07;5.25;;;;;;;-0.11;49.40;95111.63;5024044;28;20021;-82
2022/01/19 10:55:18;;;;;;;15.10;3.38;;;;;;;-0.01;48.79;95095.44;5039364;28;20029;-82
2022/01/19 10:57:44;;;;;;;12.65;5.15;;;;;;;0.04;48.06;95092.16;5023960;28;20305;-82
2022/01/19 11:00:25;;;;;;;12.80;4.97;;;;;;;0.10;48.16;95075.56;5024295;28;20064;-82
2022/01/19 11:02:54;;;;;;;11.40;4.43;;;;;;;0.11;48.31;95070.09;5024631;28;20033;-80
2022/01/19 11:05:44;;;;;;;15.05;4.78;;;;;;;0.09;48.58;95071.34;5023113;28;21000;-78
2022/01/19 11:08:10;;;;;;;20.48;5.88;;;;;;;0.22;48.61;95079.06;5023904;28;20220;-79
2022/01/19 11:10:37;;;;;;;8.50;3.95;;;;;;;0.15;48.57;95065.22;5023913;28;20022;-80
2022/01/19 11:13:05;;;;;;;15.00;5.07;;;;;;;0.15;48.41;95081.75;5023667;28;20061;-80
2022/01/19 11:15:31;;;;;;;13.60;4.13;;;;;;;0.13;47.83;95062.81;5023496;28;20068;-80
2022/01/19 11:17:56;;;;;;;14.65;4.47;;;;;;;0.11;47.95;95054.38;5038959;28;20053;-78
2022/01/19 11:20:24;;;;;;;19.77;5.07;;;;;;;0.19;47.55;95054.06;5023636;28;20025;-78
2022/01/19 11:23:02;;;;;;;38.22;7.18;;;;;;;0.21;48.31;95053.88;5038931;28;20272;-79
2022/01/19 11:25:45;;;;;;;22.63;6.70;;;;;;;0.25;47.66;95049.00;5023426;28;20049;-80
2022/01/19 11:28:23;;;;;;;10.60;4.45;;;;;;;0.31;47.99;95037.63;5023424;28;20271;-81
2022/01/19 11:30:48;;;;;;;25.90;6.68;;;;;;;0.42;48.60;95042.13;5023294;28;20037;-80
2022/01/19 11:33:26;;;;;;;13.43;5.68;;;;;;;0.58;48.61;95040.72;5038643;28;20025;-78
2022/01/19 11:36:03;;;;;;;18.27;7.18;;;;;;;0.59;49.23;95045.75;5023063;28;20057;-77
2022/01/19 11:38:34;;;;;;;13.23;6.25;;;;;;;0.70;49.98;95051.28;5022426;28;20022;-80
2022/01/19 11:41:37;;;;;;;37.90;7.93;;;;;;;0.79;49.26;95055.19;5023024;28;20021;-81
2022/01/19 11:44:04;;;;;;;16.33;5.95;;;;;;;0.86;48.59;95047.22;5022932;28;20033;-82
2022/01/19 11:46:40;;;;;;;17.27;5.22;;;;;;;0.98;48.41;95051.50;5023231;28;20332;-83
2022/01/19 11:49:08;;;;;;;14.65;5.05;;;;;;;1.02;47.95;95027.41;5038314;28;20033;-81
2022/01/19 11:51:36;;;;;;;19.58;6.63;;;;;;;1.12;48.06;95027.66;5022807;28;20049;-83
2022/01/19 11:54:21;;;;;;;14.13;5.40;;;;;;;1.21;47.08;95026.31;5021453;28;20032;-80
2022/01/19 11:56:59;;;;;;;11.65;4.90;;;;;;;1.24;46.92;95017.19;5020953;28;20033;-78
2022/01/19 11:59:27;;;;;;;12.77;5.75;;;;;;;1.27;47.00;95017.53;5022877;28;20343;-79
2022/01/19 12:01:53;;;;;;;13.30;4.68;;;;;;;1.28;45.70;95024.38;5022745;28;20332;-82
2022/01/19 12:04:22;;;;;;;10.38;4.88;;;;;;;1.17;45.91;95020.72;5023037;28;20048;-84
2022/01/19 12:06:49;;;;;;;18.30;6.22;;;;;;;1.22;46.04;95011.34;5027227;28;20037;-85
2022/01/19 12:09:16;;;;;;;16.27;5.43;;;;;;;1.24;45.75;95028.47;5026307;28;20029;-84
2022/01/19 12:11:49;;;;;;;12.57;4.40;;;;;;;1.25;45.03;95008.28;5025399;28;20030;-83
2022/01/19 12:14:19;;;;;;;24.52;6.63;;;;;;;1.31;45.83;95012.63;5023113;28;20052;-85
2022/01/19 12:17:25;;;;;;;27.10;7.60;;;;;;;1.42;46.86;95000.53;5022913;28;20032;-83
2022/01/19 12:19:52;;;;;;;17.48;7.15;;;;;;;1.57;46.15;94995.63;5023200;28;20029;-82
2022/01/19 12:22:21;;;;;;;11.82;4.93;;;;;;;1.70;45.08;94987.50;5023290;28;20050;-84
2022/01/19 12:25:01;;;;;;;26.90;10.75;;;;;;;1.91;45.70;94995.84;5038286;28;20025;-84
2022/01/19 12:27:34;;;;;;;22.17;8.48;;;;;;;1.93;45.53;94991.16;5023439;28;20065;-85
2022/01/19 12:30:19;;;;;;;14.52;5.75;;;;;;;1.88;45.96;94980.53;5022555;28;20026;-85
2022/01/19 12:32:51;;;;;;;27.92;9.45;;;;;;;1.99;45.62;94990.22;5022823;28;20022;-83
2022/01/19 12:35:31;;;;;;;26.65;9.23;;;;;;;1.99;45.95;94974.44;5022912;28;20097;-85
2022/01/19 12:37:58;;;;;;;15.32;6.95;;;;;;;2.09;45.96;94974.66;5038914;28;20026;-88
2022/01/19 12:40:35;;;;;;;15.05;6.20;;;;;;;2.18;45.71;94968.00;5022879;28;20034;-82
2022/01/19 12:43:07;;;;;;;16.67;6.45;;;;;;;2.32;44.72;94978.25;5022488;28;20029;-82
2022/01/19 12:45:43;;;;;;;21.05;5.97;;;;;;;2.23;45.06;94969.94;5037886;28;20017;-82
2022/01/19 12:48:08;;;;;;;21.65;7.15;;;;;;;2.27;45.35;94965.00;5022731;28;20018;-81
2022/01/19 12:50:37;;;;;;;19.85;6.43;;;;;;;2.20;45.91;94959.91;5022769;28;20018;-83
2022/01/19 12:53:13;;;;;;;14.77;5.88;;;;;;;2.17;45.75;94962.97;5037684;28;20028;-81
2022/01/19 12:55:41;;;;;;;16.70;7.43;;;;;;;2.20;46.04;94958.06;5023424;28;20105;-83
2022/01/19 12:58:13;;;;;;;21.33;7.38;;;;;;;2.14;46.29;94955.56;5038086;28;20022;-77
2022/01/19 13:00:41;;;;;;;22.95;7.22;;;;;;;2.07;46.68;94942.53;5022175;28;20018;-76
2022/01/19 13:03:28;;;;;;;14.98;6.30;;;;;;;1.98;46.57;94936.03;5022483;28;20072;-82
2022/01/19 13:05:58;;;;;;;23.65;7.57;;;;;;;2.06;46.69;94937.50;5024274;28;20026;-84
2022/01/19 13:08:28;;;;;;;20.52;7.00;;;;;;;2.09;47.06;94937.03;5023733;28;20017;-81
2022/01/19 13:11:00;;;;;;;17.27;6.10;;;;;;;2.14;46.65;94930.06;5022305;28;20018;-82